sensor_id;sensor_type;location;lat;lon;timestamp;P1;durP1;ratioP1;P2;durP2;ratioP2
56425;SDS011;42330;43.620;3.856;2022-11-15T00:01:46;8.45;;;7.55;;
56425;SDS011;42330;43.620;3.856;2022-11-15T00:04:11;9.35;;;7.43;;
56425;SDS011;42330;43.620;3.856;2022-11-15T00:06:37;9.38;;;7.93;;
56425;SDS011;42330;43.620;3.856;2022-11-15T00:09:03;11.52;;;8.20;;
56425;SDS011;42330;43.620;3.856;2022-11-15T00:11:28;11.13;;;7.85;;
56425;SDS011;42330;43.620;3.856;2022-11-15T00:13:55;10.65;;;7.57;;
56425;SDS011;42330;43.620;3.856;2022-11-15T00:16:21;10.82;;;7.18;;
56425;SDS011;42330;43.620;3.856;2022-11-15T00:18:48;11.80;;;7.95;;
56425;SDS011;42330;43.620;3.856;2022-11-15T00:21:13;11.07;;;8.02;;
56425;SDS011;42330;43.620;3.856;2022-11-15T00:23:40;11.13;;;7.90;;
56425;SDS011;42330;43.620;3.856;2022-11-15T00:26:06;9.00;;;7.30;;
56425;SDS011;42330;43.620;3.856;2022-11-15T00:28:32;11.10;;;7.53;;
56425;SDS011;42330;43.620;3.856;2022-11-15T00:31:01;7.70;;;6.80;;
56425;SDS011;42330;43.620;3.856;2022-11-15T00:33:29;9.95;;;7.63;;
56425;SDS011;42330;43.620;3.856;2022-11-15T00:36:08;9.13;;;7.40;;
56425;SDS011;42330;43.620;3.856;2022-11-15T00:38:34;10.68;;;6.90;;
56425;SDS011;42330;43.620;3.856;2022-11-15T00:41:02;8.43;;;6.65;;
56425;SDS011;42330;43.620;3.856;2022-11-15T00:43:29;9.50;;;7.00;;
56425;SDS011;42330;43.620;3.856;2022-11-15T00:45:54;9.02;;;6.60;;
56425;SDS011;42330;43.620;3.856;2022-11-15T00:48:20;8.40;;;6.78;;
56425;SDS011;42330;43.620;3.856;2022-11-15T00:50:46;8.77;;;6.95;;
56425;SDS011;42330;43.620;3.856;2022-11-15T00:53:12;10.55;;;6.43;;
56425;SDS011;42330;43.620;3.856;2022-11-15T00:55:37;7.45;;;6.18;;
56425;SDS011;42330;43.620;3.856;2022-11-15T00:58:03;8.23;;;6.00;;
56425;SDS011;42330;43.620;3.856;2022-11-15T01:00:29;6.78;;;6.07;;
56425;SDS011;42330;43.620;3.856;2022-11-15T01:02:54;7.57;;;5.95;;
56425;SDS011;42330;43.620;3.856;2022-11-15T01:05:20;8.10;;;5.90;;
56425;SDS011;42330;43.620;3.856;2022-11-15T01:07:46;8.00;;;5.30;;
56425;SDS011;42330;43.620;3.856;2022-11-15T01:10:12;7.15;;;5.55;;
56425;SDS011;42330;43.620;3.856;2022-11-15T01:12:37;7.40;;;5.25;;
56425;SDS011;42330;43.620;3.856;2022-11-15T01:15:03;5.53;;;4.82;;
56425;SDS011;42330;43.620;3.856;2022-11-15T01:17:30;8.75;;;5.05;;
56425;SDS011;42330;43.620;3.856;2022-11-15T01:19:56;6.28;;;4.60;;
56425;SDS011;42330;43.620;3.856;2022-11-15T01:22:21;6.28;;;5.03;;
56425;SDS011;42330;43.620;3.856;2022-11-15T01:24:49;5.35;;;4.57;;
56425;SDS011;42330;43.620;3.856;2022-11-15T01:27:15;6.18;;;4.90;;
56425;SDS011;42330;43.620;3.856;2022-11-15T01:29:41;5.63;;;5.03;;
56425;SDS011;42330;43.620;3.856;2022-11-15T01:32:06;5.63;;;5.00;;
56425;SDS011;42330;43.620;3.856;2022-11-15T01:34:32;9.30;;;5.35;;
56425;SDS011;42330;43.620;3.856;2022-11-15T01:36:58;6.65;;;5.32;;
56425;SDS011;42330;43.620;3.856;2022-11-15T01:39:24;6.90;;;5.88;;
56425;SDS011;42330;43.620;3.856;2022-11-15T01:41:49;6.70;;;5.68;;
56425;SDS011;42330;43.620;3.856;2022-11-15T01:46:59;9.50;;;5.72;;
56425;SDS011;42330;43.620;3.856;2022-11-15T01:49:29;6.70;;;6.05;;
56425;SDS011;42330;43.620;3.856;2022-11-15T01:51:58;8.27;;;5.95;;
56425;SDS011;42330;43.620;3.856;2022-11-15T01:54:27;7.63;;;5.88;;
56425;SDS011;42330;43.620;3.856;2022-11-15T01:56:53;10.18;;;6.57;;
56425;SDS011;42330;43.620;3.856;2022-11-15T01:59:30;7.68;;;6.10;;
56425;SDS011;42330;43.620;3.856;2022-11-15T02:01:57;8.95;;;5.97;;
56425;SDS011;42330;43.620;3.856;2022-11-15T02:04:24;7.93;;;5.93;;
56425;SDS011;42330;43.620;3.856;2022-11-15T02:06:52;7.05;;;5.65;;
56425;SDS011;42330;43.620;3.856;2022-11-15T02:09:18;6.60;;;5.75;;
56425;SDS011;42330;43.620;3.856;2022-11-15T02:11:44;7.57;;;5.55;;
56425;SDS011;42330;43.620;3.856;2022-11-15T02:14:12;6.78;;;5.90;;
56425;SDS011;42330;43.620;3.856;2022-11-15T02:21:56;7.78;;;5.50;;
56425;SDS011;42330;43.620;3.856;2022-11-15T02:25:18;6.45;;;5.50;;
56425;SDS011;42330;43.620;3.856;2022-11-15T02:31:10;6.15;;;5.40;;
56425;SDS011;42330;43.620;3.856;2022-11-15T02:36:33;6.60;;;5.38;;
56425;SDS011;42330;43.620;3.856;2022-11-15T02:39:49;6.13;;;5.53;;
56425;SDS011;42330;43.620;3.856;2022-11-15T02:42:04;7.20;;;5.65;;
56425;SDS011;42330;43.620;3.856;2022-11-15T02:44:56;6.50;;;5.70;;
56425;SDS011;42330;43.620;3.856;2022-11-15T02:47:27;7.75;;;5.38;;
56425;SDS011;42330;43.620;3.856;2022-11-15T02:49:57;6.20;;;5.35;;
56425;SDS011;42330;43.620;3.856;2022-11-15T02:52:25;6.10;;;5.30;;
56425;SDS011;42330;43.620;3.856;2022-11-15T02:54:53;6.10;;;5.50;;
56425;SDS011;42330;43.620;3.856;2022-11-15T02:57:21;6.07;;;5.43;;
56425;SDS011;42330;43.620;3.856;2022-11-15T02:59:56;6.20;;;5.03;;
56425;SDS011;42330;43.620;3.856;2022-11-15T03:07:24;6.18;;;5.40;;
56425;SDS011;42330;43.620;3.856;2022-11-15T03:12:57;6.40;;;5.80;;
56425;SDS011;42330;43.620;3.856;2022-11-15T03:15:36;6.03;;;5.00;;
56425;SDS011;42330;43.620;3.856;2022-11-15T03:18:15;5.97;;;5.30;;
56425;SDS011;42330;43.620;3.856;2022-11-15T03:20:42;5.93;;;5.05;;
56425;SDS011;42330;43.620;3.856;2022-11-15T03:23:09;6.97;;;5.65;;
56425;SDS011;42330;43.620;3.856;2022-11-15T03:25:36;7.32;;;5.75;;
56425;SDS011;42330;43.620;3.856;2022-11-15T03:28:14;7.05;;;5.30;;
56425;SDS011;42330;43.620;3.856;2022-11-15T03:30:47;6.30;;;5.50;;
56425;SDS011;42330;43.620;3.856;2022-11-15T03:33:14;7.30;;;5.70;;
56425;SDS011;42330;43.620;3.856;2022-11-15T03:35:42;5.93;;;5.25;;
56425;SDS011;42330;43.620;3.856;2022-11-15T03:38:21;6.47;;;5.88;;
56425;SDS011;42330;43.620;3.856;2022-11-15T03:40:59;6.22;;;5.63;;
56425;SDS011;42330;43.620;3.856;2022-11-15T03:43:30;5.97;;;5.38;;
56425;SDS011;42330;43.620;3.856;2022-11-15T03:46:15;7.68;;;5.53;;
56425;SDS011;42330;43.620;3.856;2022-11-15T03:48:49;7.07;;;5.85;;
56425;SDS011;42330;43.620;3.856;2022-11-15T03:51:18;6.00;;;5.40;;
56425;SDS011;42330;43.620;3.856;2022-11-15T03:53:45;7.35;;;5.72;;
56425;SDS011;42330;43.620;3.856;2022-11-15T03:56:11;8.88;;;6.60;;
56425;SDS011;42330;43.620;3.856;2022-11-15T03:58:36;8.60;;;5.93;;
56425;SDS011;42330;43.620;3.856;2022-11-15T04:01:02;6.45;;;5.80;;
56425;SDS011;42330;43.620;3.856;2022-11-15T04:03:28;7.43;;;5.22;;
56425;SDS011;42330;43.620;3.856;2022-11-15T04:05:54;6.25;;;5.57;;
56425;SDS011;42330;43.620;3.856;2022-11-15T04:08:19;5.82;;;5.07;;
56425;SDS011;42330;43.620;3.856;2022-11-15T04:10:45;7.18;;;5.20;;
56425;SDS011;42330;43.620;3.856;2022-11-15T04:13:13;5.82;;;5.20;;
56425;SDS011;42330;43.620;3.856;2022-11-15T04:15:38;5.68;;;5.07;;
56425;SDS011;42330;43.620;3.856;2022-11-15T04:18:04;5.40;;;4.90;;
56425;SDS011;42330;43.620;3.856;2022-11-15T04:20:30;5.80;;;5.28;;
56425;SDS011;42330;43.620;3.856;2022-11-15T04:23:16;5.50;;;5.00;;
56425;SDS011;42330;43.620;3.856;2022-11-15T04:26:05;5.47;;;4.97;;
56425;SDS011;42330;43.620;3.856;2022-11-15T04:28:33;7.25;;;5.25;;
56425;SDS011;42330;43.620;3.856;2022-11-15T04:30:59;6.30;;;4.80;;
56425;SDS011;42330;43.620;3.856;2022-11-15T04:33:24;6.10;;;4.88;;
56425;SDS011;42330;43.620;3.856;2022-11-15T04:35:50;5.40;;;4.90;;
56425;SDS011;42330;43.620;3.856;2022-11-15T04:38:35;6.00;;;5.40;;
56425;SDS011;42330;43.620;3.856;2022-11-15T04:41:01;6.18;;;5.00;;
56425;SDS011;42330;43.620;3.856;2022-11-15T04:43:28;6.00;;;4.93;;
56425;SDS011;42330;43.620;3.856;2022-11-15T04:45:54;5.47;;;4.95;;
56425;SDS011;42330;43.620;3.856;2022-11-15T04:48:20;6.05;;;5.10;;
56425;SDS011;42330;43.620;3.856;2022-11-15T04:50:47;5.93;;;5.20;;
56425;SDS011;42330;43.620;3.856;2022-11-15T04:53:14;5.85;;;5.22;;
56425;SDS011;42330;43.620;3.856;2022-11-15T04:55:39;6.40;;;5.05;;
56425;SDS011;42330;43.620;3.856;2022-11-15T04:58:08;5.68;;;4.75;;
56425;SDS011;42330;43.620;3.856;2022-11-15T05:00:34;5.75;;;5.15;;
56425;SDS011;42330;43.620;3.856;2022-11-15T05:03:00;7.38;;;5.35;;
56425;SDS011;42330;43.620;3.856;2022-11-15T05:06:05;5.53;;;4.70;;
56425;SDS011;42330;43.620;3.856;2022-11-15T05:08:31;6.07;;;4.57;;
56425;SDS011;42330;43.620;3.856;2022-11-15T05:10:57;5.45;;;4.72;;
56425;SDS011;42330;43.620;3.856;2022-11-15T05:13:23;5.28;;;4.70;;
56425;SDS011;42330;43.620;3.856;2022-11-15T05:15:48;6.80;;;4.78;;
56425;SDS011;42330;43.620;3.856;2022-11-15T05:18:14;5.32;;;4.65;;
56425;SDS011;42330;43.620;3.856;2022-11-15T05:20:39;6.82;;;4.70;;
56425;SDS011;42330;43.620;3.856;2022-11-15T05:23:05;5.07;;;4.55;;
56425;SDS011;42330;43.620;3.856;2022-11-15T05:25:31;5.45;;;4.85;;
56425;SDS011;42330;43.620;3.856;2022-11-15T05:27:57;8.10;;;4.85;;
56425;SDS011;42330;43.620;3.856;2022-11-15T05:30:22;5.20;;;4.70;;
56425;SDS011;42330;43.620;3.856;2022-11-15T05:32:48;5.28;;;4.57;;
56425;SDS011;42330;43.620;3.856;2022-11-15T05:35:19;5.30;;;4.80;;
56425;SDS011;42330;43.620;3.856;2022-11-15T05:37:57;4.95;;;4.45;;
56425;SDS011;42330;43.620;3.856;2022-11-15T05:40:23;5.18;;;4.68;;
56425;SDS011;42330;43.620;3.856;2022-11-15T05:42:49;5.97;;;4.55;;
56425;SDS011;42330;43.620;3.856;2022-11-15T05:45:15;5.55;;;4.70;;
56425;SDS011;42330;43.620;3.856;2022-11-15T05:47:41;5.18;;;4.68;;
56425;SDS011;42330;43.620;3.856;2022-11-15T05:50:07;5.32;;;4.72;;
56425;SDS011;42330;43.620;3.856;2022-11-15T05:52:39;5.57;;;4.50;;
56425;SDS011;42330;43.620;3.856;2022-11-15T05:55:05;7.25;;;4.68;;
56425;SDS011;42330;43.620;3.856;2022-11-15T05:57:32;6.40;;;4.47;;
56425;SDS011;42330;43.620;3.856;2022-11-15T05:59:58;5.15;;;4.65;;
56425;SDS011;42330;43.620;3.856;2022-11-15T06:02:23;5.03;;;4.53;;
56425;SDS011;42330;43.620;3.856;2022-11-15T06:04:49;6.13;;;4.43;;
56425;SDS011;42330;43.620;3.856;2022-11-15T06:07:15;6.53;;;4.90;;
56425;SDS011;42330;43.620;3.856;2022-11-15T06:09:40;7.30;;;5.00;;
56425;SDS011;42330;43.620;3.856;2022-11-15T06:12:06;6.15;;;4.70;;
56425;SDS011;42330;43.620;3.856;2022-11-15T06:14:32;5.35;;;4.85;;
56425;SDS011;42330;43.620;3.856;2022-11-15T06:16:57;7.78;;;4.90;;
56425;SDS011;42330;43.620;3.856;2022-11-15T06:19:23;5.80;;;4.65;;
56425;SDS011;42330;43.620;3.856;2022-11-15T06:21:48;6.25;;;4.70;;
56425;SDS011;42330;43.620;3.856;2022-11-15T06:24:14;5.25;;;4.63;;
56425;SDS011;42330;43.620;3.856;2022-11-15T06:26:40;6.88;;;5.13;;
56425;SDS011;42330;43.620;3.856;2022-11-15T06:29:05;5.30;;;4.70;;
56425;SDS011;42330;43.620;3.856;2022-11-15T06:31:31;6.82;;;4.75;;
56425;SDS011;42330;43.620;3.856;2022-11-15T06:33:58;5.65;;;4.80;;
56425;SDS011;42330;43.620;3.856;2022-11-15T06:36:24;6.03;;;4.60;;
56425;SDS011;42330;43.620;3.856;2022-11-15T06:38:50;5.40;;;4.90;;
56425;SDS011;42330;43.620;3.856;2022-11-15T06:41:15;5.32;;;4.40;;
56425;SDS011;42330;43.620;3.856;2022-11-15T06:43:42;6.95;;;4.47;;
56425;SDS011;42330;43.620;3.856;2022-11-15T06:46:08;6.47;;;4.93;;
56425;SDS011;42330;43.620;3.856;2022-11-15T06:48:34;6.38;;;4.57;;
56425;SDS011;42330;43.620;3.856;2022-11-15T06:51:01;5.20;;;4.70;;
56425;SDS011;42330;43.620;3.856;2022-11-15T06:53:29;5.55;;;4.80;;
56425;SDS011;42330;43.620;3.856;2022-11-15T06:56:02;6.20;;;4.45;;
56425;SDS011;42330;43.620;3.856;2022-11-15T06:58:29;5.37;;;4.87;;
56425;SDS011;42330;43.620;3.856;2022-11-15T07:01:05;6.55;;;4.65;;
56425;SDS011;42330;43.620;3.856;2022-11-15T07:03:39;6.40;;;4.90;;
56425;SDS011;42330;43.620;3.856;2022-11-15T07:06:06;5.60;;;4.90;;
56425;SDS011;42330;43.620;3.856;2022-11-15T07:08:33;6.70;;;5.30;;
56425;SDS011;42330;43.620;3.856;2022-11-15T07:11:00;6.07;;;4.97;;
56425;SDS011;42330;43.620;3.856;2022-11-15T07:13:29;6.55;;;4.88;;
56425;SDS011;42330;43.620;3.856;2022-11-15T07:15:58;8.52;;;5.30;;
56425;SDS011;42330;43.620;3.856;2022-11-15T07:18:30;6.78;;;4.78;;
56425;SDS011;42330;43.620;3.856;2022-11-15T07:20:59;6.10;;;5.25;;
56425;SDS011;42330;43.620;3.856;2022-11-15T07:23:25;5.85;;;5.25;;
56425;SDS011;42330;43.620;3.856;2022-11-15T07:25:51;5.97;;;5.05;;
56425;SDS011;42330;43.620;3.856;2022-11-15T07:28:17;5.97;;;5.28;;
56425;SDS011;42330;43.620;3.856;2022-11-15T07:30:42;7.45;;;5.50;;
56425;SDS011;42330;43.620;3.856;2022-11-15T07:33:08;7.35;;;5.40;;
56425;SDS011;42330;43.620;3.856;2022-11-15T07:35:34;6.63;;;5.18;;
56425;SDS011;42330;43.620;3.856;2022-11-15T07:38:00;8.15;;;5.43;;
56425;SDS011;42330;43.620;3.856;2022-11-15T07:40:27;6.47;;;5.47;;
56425;SDS011;42330;43.620;3.856;2022-11-15T07:42:58;7.35;;;5.00;;
56425;SDS011;42330;43.620;3.856;2022-11-15T07:45:28;7.10;;;5.77;;
56425;SDS011;42330;43.620;3.856;2022-11-15T07:47:54;7.07;;;5.70;;
56425;SDS011;42330;43.620;3.856;2022-11-15T07:50:21;7.53;;;5.60;;
56425;SDS011;42330;43.620;3.856;2022-11-15T07:52:53;12.27;;;6.18;;
56425;SDS011;42330;43.620;3.856;2022-11-15T07:55:19;7.68;;;5.82;;
56425;SDS011;42330;43.620;3.856;2022-11-15T07:57:45;7.18;;;5.32;;
56425;SDS011;42330;43.620;3.856;2022-11-15T08:00:10;6.18;;;5.20;;
56425;SDS011;42330;43.620;3.856;2022-11-15T08:02:37;11.30;;;5.95;;
56425;SDS011;42330;43.620;3.856;2022-11-15T08:05:02;8.95;;;6.13;;
56425;SDS011;42330;43.620;3.856;2022-11-15T08:07:29;8.98;;;5.70;;
56425;SDS011;42330;43.620;3.856;2022-11-15T08:09:56;8.77;;;5.90;;
56425;SDS011;42330;43.620;3.856;2022-11-15T08:12:22;7.13;;;5.65;;
56425;SDS011;42330;43.620;3.856;2022-11-15T08:14:47;6.63;;;5.53;;
56425;SDS011;42330;43.620;3.856;2022-11-15T08:17:13;6.65;;;5.70;;
56425;SDS011;42330;43.620;3.856;2022-11-15T08:19:39;6.70;;;5.65;;
56425;SDS011;42330;43.620;3.856;2022-11-15T08:22:04;8.38;;;5.72;;
56425;SDS011;42330;43.620;3.856;2022-11-15T08:24:30;6.78;;;5.80;;
56425;SDS011;42330;43.620;3.856;2022-11-15T08:26:56;6.95;;;6.25;;
56425;SDS011;42330;43.620;3.856;2022-11-15T08:29:21;7.45;;;5.90;;
56425;SDS011;42330;43.620;3.856;2022-11-15T08:31:47;7.50;;;6.15;;
56425;SDS011;42330;43.620;3.856;2022-11-15T08:34:13;7.20;;;6.10;;
56425;SDS011;42330;43.620;3.856;2022-11-15T08:36:38;9.40;;;6.05;;
56425;SDS011;42330;43.620;3.856;2022-11-15T08:39:04;9.93;;;6.45;;
56425;SDS011;42330;43.620;3.856;2022-11-15T08:41:33;8.85;;;6.07;;
56425;SDS011;42330;43.620;3.856;2022-11-15T08:44:01;7.40;;;5.75;;
56425;SDS011;42330;43.620;3.856;2022-11-15T08:46:27;7.82;;;6.00;;
56425;SDS011;42330;43.620;3.856;2022-11-15T08:48:53;9.82;;;6.18;;
56425;SDS011;42330;43.620;3.856;2022-11-15T08:51:19;10.57;;;5.70;;
56425;SDS011;42330;43.620;3.856;2022-11-15T08:53:45;8.20;;;5.97;;
56425;SDS011;42330;43.620;3.856;2022-11-15T08:56:12;12.90;;;7.35;;
56425;SDS011;42330;43.620;3.856;2022-11-15T08:58:39;12.48;;;6.90;;
56425;SDS011;42330;43.620;3.856;2022-11-15T09:01:05;9.20;;;6.45;;
56425;SDS011;42330;43.620;3.856;2022-11-15T09:03:31;8.95;;;6.55;;
56425;SDS011;42330;43.620;3.856;2022-11-15T09:05:57;10.80;;;7.18;;
56425;SDS011;42330;43.620;3.856;2022-11-15T09:08:24;12.07;;;7.05;;
56425;SDS011;42330;43.620;3.856;2022-11-15T09:10:51;8.80;;;6.88;;
56425;SDS011;42330;43.620;3.856;2022-11-15T09:13:17;9.90;;;6.70;;
56425;SDS011;42330;43.620;3.856;2022-11-15T09:15:43;9.52;;;6.80;;
56425;SDS011;42330;43.620;3.856;2022-11-15T09:18:08;9.88;;;7.10;;
56425;SDS011;42330;43.620;3.856;2022-11-15T09:20:35;10.20;;;6.70;;
56425;SDS011;42330;43.620;3.856;2022-11-15T09:23:01;8.30;;;5.97;;
56425;SDS011;42330;43.620;3.856;2022-11-15T09:25:28;12.77;;;8.35;;
56425;SDS011;42330;43.620;3.856;2022-11-15T09:27:54;18.38;;;12.75;;
56425;SDS011;42330;43.620;3.856;2022-11-15T09:30:20;12.43;;;7.88;;
56425;SDS011;42330;43.620;3.856;2022-11-15T09:32:46;10.35;;;6.80;;
56425;SDS011;42330;43.620;3.856;2022-11-15T09:35:12;12.75;;;6.72;;
56425;SDS011;42330;43.620;3.856;2022-11-15T09:37:38;16.13;;;7.00;;
56425;SDS011;42330;43.620;3.856;2022-11-15T09:40:03;11.63;;;8.10;;
56425;SDS011;42330;43.620;3.856;2022-11-15T09:45:28;15.18;;;8.15;;
56425;SDS011;42330;43.620;3.856;2022-11-15T09:48:08;13.35;;;7.45;;
56425;SDS011;42330;43.620;3.856;2022-11-15T09:53:02;13.32;;;7.20;;
56425;SDS011;42330;43.620;3.856;2022-11-15T09:55:34;12.57;;;7.15;;
56425;SDS011;42330;43.620;3.856;2022-11-15T10:00:57;12.75;;;7.63;;
56425;SDS011;42330;43.620;3.856;2022-11-15T10:03:29;15.73;;;7.60;;
56425;SDS011;42330;43.620;3.856;2022-11-15T10:06:00;11.68;;;7.43;;
56425;SDS011;42330;43.620;3.856;2022-11-15T10:11:32;11.75;;;7.95;;
56425;SDS011;42330;43.620;3.856;2022-11-15T10:14:02;15.68;;;8.82;;
56425;SDS011;42330;43.620;3.856;2022-11-15T10:22:28;11.27;;;7.57;;
56425;SDS011;42330;43.620;3.856;2022-11-15T10:25:16;14.82;;;7.88;;
56425;SDS011;42330;43.620;3.856;2022-11-15T10:27:51;15.63;;;8.80;;
56425;SDS011;42330;43.620;3.856;2022-11-15T10:30:20;10.40;;;7.90;;
56425;SDS011;42330;43.620;3.856;2022-11-15T10:32:47;12.77;;;7.60;;
56425;SDS011;42330;43.620;3.856;2022-11-15T10:35:25;12.45;;;7.75;;
56425;SDS011;42330;43.620;3.856;2022-11-15T10:38:08;14.30;;;8.05;;
56425;SDS011;42330;43.620;3.856;2022-11-15T10:40:35;10.10;;;7.38;;
56425;SDS011;42330;43.620;3.856;2022-11-15T10:43:24;12.13;;;8.02;;
56425;SDS011;42330;43.620;3.856;2022-11-15T10:45:51;11.85;;;8.10;;
56425;SDS011;42330;43.620;3.856;2022-11-15T10:50:44;13.73;;;8.70;;
56425;SDS011;42330;43.620;3.856;2022-11-15T10:53:12;13.55;;;8.80;;
56425;SDS011;42330;43.620;3.856;2022-11-15T10:55:53;10.38;;;8.25;;
56425;SDS011;42330;43.620;3.856;2022-11-15T11:00:54;16.50;;;9.75;;
56425;SDS011;42330;43.620;3.856;2022-11-15T11:03:24;15.82;;;9.88;;
56425;SDS011;42330;43.620;3.856;2022-11-15T11:06:03;15.45;;;11.18;;
56425;SDS011;42330;43.620;3.856;2022-11-15T11:08:31;15.63;;;10.10;;
56425;SDS011;42330;43.620;3.856;2022-11-15T11:10:58;78.38;;;50.15;;
56425;SDS011;42330;43.620;3.856;2022-11-15T11:13:26;32.50;;;19.92;;
56425;SDS011;42330;43.620;3.856;2022-11-15T11:16:36;28.60;;;17.75;;
56425;SDS011;42330;43.620;3.856;2022-11-15T11:27:50;15.27;;;9.17;;
56425;SDS011;42330;43.620;3.856;2022-11-15T11:45:10;13.27;;;9.13;;
56425;SDS011;42330;43.620;3.856;2022-11-15T11:50:32;13.88;;;8.98;;
56425;SDS011;42330;43.620;3.856;2022-11-15T11:58:34;14.07;;;7.88;;
56425;SDS011;42330;43.620;3.856;2022-11-15T12:03:47;15.55;;;9.05;;
56425;SDS011;42330;43.620;3.856;2022-11-15T12:08:58;12.70;;;8.77;;
56425;SDS011;42330;43.620;3.856;2022-11-15T12:16:57;18.05;;;8.82;;
56425;SDS011;42330;43.620;3.856;2022-11-15T12:19:23;17.77;;;9.90;;
56425;SDS011;42330;43.620;3.856;2022-11-15T12:21:55;15.25;;;9.15;;
56425;SDS011;42330;43.620;3.856;2022-11-15T12:27:40;13.70;;;8.60;;
56425;SDS011;42330;43.620;3.856;2022-11-15T12:30:15;16.13;;;9.30;;
56425;SDS011;42330;43.620;3.856;2022-11-15T12:32:54;15.27;;;8.77;;
56425;SDS011;42330;43.620;3.856;2022-11-15T12:35:38;15.40;;;9.20;;
56425;SDS011;42330;43.620;3.856;2022-11-15T12:38:10;15.30;;;8.95;;
56425;SDS011;42330;43.620;3.856;2022-11-15T12:40:38;16.02;;;9.40;;
56425;SDS011;42330;43.620;3.856;2022-11-15T12:46:04;18.15;;;9.70;;
56425;SDS011;42330;43.620;3.856;2022-11-15T12:50:59;16.50;;;10.30;;
56425;SDS011;42330;43.620;3.856;2022-11-15T12:53:26;20.30;;;10.68;;
56425;SDS011;42330;43.620;3.856;2022-11-15T13:07:02;27.17;;;9.60;;
56425;SDS011;42330;43.620;3.856;2022-11-15T13:12:08;41.30;;;10.95;;
56425;SDS011;42330;43.620;3.856;2022-11-15T13:19:45;31.75;;;10.82;;
56425;SDS011;42330;43.620;3.856;2022-11-15T13:22:12;40.92;;;10.93;;
56425;SDS011;42330;43.620;3.856;2022-11-15T13:24:57;37.53;;;10.68;;
56425;SDS011;42330;43.620;3.856;2022-11-15T13:27:25;38.70;;;10.70;;
56425;SDS011;42330;43.620;3.856;2022-11-15T13:29:51;37.67;;;10.90;;
56425;SDS011;42330;43.620;3.856;2022-11-15T13:32:17;38.13;;;10.43;;
56425;SDS011;42330;43.620;3.856;2022-11-15T13:34:47;40.67;;;10.10;;
56425;SDS011;42330;43.620;3.856;2022-11-15T13:39:46;47.30;;;10.40;;
56425;SDS011;42330;43.620;3.856;2022-11-15T13:42:16;39.15;;;10.15;;
56425;SDS011;42330;43.620;3.856;2022-11-15T13:44:59;37.05;;;9.57;;
56425;SDS011;42330;43.620;3.856;2022-11-15T13:47:27;35.95;;;9.50;;
56425;SDS011;42330;43.620;3.856;2022-11-15T13:49:56;38.75;;;9.68;;
56425;SDS011;42330;43.620;3.856;2022-11-15T13:52:22;34.85;;;10.18;;
56425;SDS011;42330;43.620;3.856;2022-11-15T13:57:57;34.65;;;9.20;;
56425;SDS011;42330;43.620;3.856;2022-11-15T14:08:31;28.27;;;8.25;;
56425;SDS011;42330;43.620;3.856;2022-11-15T14:11:17;30.40;;;8.63;;
56425;SDS011;42330;43.620;3.856;2022-11-15T14:16:44;32.67;;;8.25;;
56425;SDS011;42330;43.620;3.856;2022-11-15T14:19:13;27.90;;;8.25;;
56425;SDS011;42330;43.620;3.856;2022-11-15T14:25:16;22.98;;;7.55;;
56425;SDS011;42330;43.620;3.856;2022-11-15T14:31:04;22.10;;;6.93;;
56425;SDS011;42330;43.620;3.856;2022-11-15T14:33:37;27.60;;;8.00;;
56425;SDS011;42330;43.620;3.856;2022-11-15T14:38:35;28.13;;;7.30;;
56425;SDS011;42330;43.620;3.856;2022-11-15T14:41:01;27.63;;;7.50;;
56425;SDS011;42330;43.620;3.856;2022-11-15T14:43:27;24.92;;;7.18;;
56425;SDS011;42330;43.620;3.856;2022-11-15T14:45:52;24.88;;;7.40;;
56425;SDS011;42330;43.620;3.856;2022-11-15T14:48:18;23.73;;;7.40;;
56425;SDS011;42330;43.620;3.856;2022-11-15T14:50:44;19.33;;;6.40;;
56425;SDS011;42330;43.620;3.856;2022-11-15T14:53:14;27.73;;;7.57;;
56425;SDS011;42330;43.620;3.856;2022-11-15T14:55:41;25.80;;;7.43;;
56425;SDS011;42330;43.620;3.856;2022-11-15T14:58:07;21.75;;;6.93;;
56425;SDS011;42330;43.620;3.856;2022-11-15T15:00:33;23.58;;;7.20;;
56425;SDS011;42330;43.620;3.856;2022-11-15T15:03:03;25.75;;;6.53;;
56425;SDS011;42330;43.620;3.856;2022-11-15T15:07:58;23.05;;;6.88;;
56425;SDS011;42330;43.620;3.856;2022-11-15T15:10:25;24.60;;;6.57;;
56425;SDS011;42330;43.620;3.856;2022-11-15T15:12:55;23.75;;;6.95;;
56425;SDS011;42330;43.620;3.856;2022-11-15T15:15:24;26.95;;;6.57;;
56425;SDS011;42330;43.620;3.856;2022-11-15T15:17:54;27.67;;;6.37;;
56425;SDS011;42330;43.620;3.856;2022-11-15T15:20:20;35.33;;;7.60;;
56425;SDS011;42330;43.620;3.856;2022-11-15T15:22:45;20.75;;;6.90;;
56425;SDS011;42330;43.620;3.856;2022-11-15T15:25:33;26.08;;;7.10;;
56425;SDS011;42330;43.620;3.856;2022-11-15T15:27:58;25.90;;;6.80;;
56425;SDS011;42330;43.620;3.856;2022-11-15T15:30:25;24.50;;;6.57;;
56425;SDS011;42330;43.620;3.856;2022-11-15T15:32:52;28.48;;;7.47;;
56425;SDS011;42330;43.620;3.856;2022-11-15T15:35:19;23.10;;;6.75;;
56425;SDS011;42330;43.620;3.856;2022-11-15T15:37:45;23.05;;;6.93;;
56425;SDS011;42330;43.620;3.856;2022-11-15T15:40:16;26.98;;;7.32;;
56425;SDS011;42330;43.620;3.856;2022-11-15T15:42:45;25.30;;;7.65;;
56425;SDS011;42330;43.620;3.856;2022-11-15T15:45:11;23.95;;;7.57;;
56425;SDS011;42330;43.620;3.856;2022-11-15T15:47:38;26.88;;;7.57;;
56425;SDS011;42330;43.620;3.856;2022-11-15T15:50:16;30.85;;;7.72;;
56425;SDS011;42330;43.620;3.856;2022-11-15T15:52:42;31.73;;;7.13;;
56425;SDS011;42330;43.620;3.856;2022-11-15T15:55:08;26.52;;;7.57;;
56425;SDS011;42330;43.620;3.856;2022-11-15T15:57:35;28.52;;;7.55;;
56425;SDS011;42330;43.620;3.856;2022-11-15T16:00:01;24.85;;;6.97;;
56425;SDS011;42330;43.620;3.856;2022-11-15T16:02:27;31.90;;;7.68;;
56425;SDS011;42330;43.620;3.856;2022-11-15T16:04:53;32.08;;;7.80;;
56425;SDS011;42330;43.620;3.856;2022-11-15T16:07:20;28.67;;;7.50;;
56425;SDS011;42330;43.620;3.856;2022-11-15T16:09:48;25.73;;;7.57;;
56425;SDS011;42330;43.620;3.856;2022-11-15T16:12:32;23.73;;;7.25;;
56425;SDS011;42330;43.620;3.856;2022-11-15T16:14:59;26.60;;;7.78;;
56425;SDS011;42330;43.620;3.856;2022-11-15T16:17:30;23.83;;;9.00;;
56425;SDS011;42330;43.620;3.856;2022-11-15T16:20:04;25.88;;;9.75;;
56425;SDS011;42330;43.620;3.856;2022-11-15T16:22:31;29.75;;;9.57;;
56425;SDS011;42330;43.620;3.856;2022-11-15T16:24:56;25.60;;;8.88;;
56425;SDS011;42330;43.620;3.856;2022-11-15T16:27:22;31.52;;;8.27;;
56425;SDS011;42330;43.620;3.856;2022-11-15T16:29:48;26.08;;;7.93;;
56425;SDS011;42330;43.620;3.856;2022-11-15T16:32:14;26.58;;;8.30;;
56425;SDS011;42330;43.620;3.856;2022-11-15T16:34:40;26.63;;;8.48;;
56425;SDS011;42330;43.620;3.856;2022-11-15T16:37:11;29.63;;;8.25;;
56425;SDS011;42330;43.620;3.856;2022-11-15T16:39:46;27.33;;;8.60;;
56425;SDS011;42330;43.620;3.856;2022-11-15T16:42:12;27.38;;;9.02;;
56425;SDS011;42330;43.620;3.856;2022-11-15T16:44:37;21.80;;;8.68;;
56425;SDS011;42330;43.620;3.856;2022-11-15T16:47:03;20.77;;;7.28;;
56425;SDS011;42330;43.620;3.856;2022-11-15T16:49:29;27.52;;;8.02;;
56425;SDS011;42330;43.620;3.856;2022-11-15T16:51:54;28.45;;;7.85;;
56425;SDS011;42330;43.620;3.856;2022-11-15T16:54:20;18.70;;;6.88;;
56425;SDS011;42330;43.620;3.856;2022-11-15T16:56:46;20.90;;;7.07;;
56425;SDS011;42330;43.620;3.856;2022-11-15T16:59:14;22.58;;;7.93;;
56425;SDS011;42330;43.620;3.856;2022-11-15T17:01:41;22.73;;;6.90;;
56425;SDS011;42330;43.620;3.856;2022-11-15T17:04:14;24.08;;;7.72;;
56425;SDS011;42330;43.620;3.856;2022-11-15T17:06:42;28.42;;;7.38;;
56425;SDS011;42330;43.620;3.856;2022-11-15T17:09:12;22.83;;;7.95;;
56425;SDS011;42330;43.620;3.856;2022-11-15T17:11:43;23.60;;;8.07;;
56425;SDS011;42330;43.620;3.856;2022-11-15T17:14:09;17.85;;;7.47;;